This is the latest recevied weather packets stored in our database for station/object OH2HCY-3. If no packets are shown the sender has not sent any weather packets the latest 10 day(s).
| Time | Temp. | Humidity | Pressure | Rain* | Wind** | Luminosity | Snow |
|---|---|---|---|---|---|---|---|
| 1777724210 | 13.33° C | 48% | 1010.9 hPa | - | - | - | - |
| 1777723075 | 12.22° C | 53% | 1011.1 hPa | - | - | - | - |
| 1777721950 | 11.67° C | 56% | 1011.1 hPa | - | - | - | - |
| 1777720945 | 11.67° C | 57% | 1011.3 hPa | - | - | - | - |
| 1777719800 | 11.67° C | 56% | 1011.3 hPa | - | - | - | - |
| 1777718635 | 11.67° C | 55% | 1011.3 hPa | - | - | - | - |
| 1777717574 | 11.67° C | 54% | 1011.2 hPa | - | - | - | - |
| 1777716587 | 12.22° C | 52% | 1011.2 hPa | - | - | - | - |
| 1777715544 | 12.78° C | 52% | 1011.2 hPa | - | - | - | - |
| 1777715543 | 12.78° C | 52% | 1011.2 hPa | - | - | - | - |
| 1777714368 | 13.33° C | 51% | 1011.2 hPa | - | - | - | - |
| 1777713330 | 13.89° C | 52% | 1011.3 hPa | - | - | - | - |
| 1777712130 | 13.89° C | 51% | 1011.4 hPa | - | - | - | - |
| 1777711113 | 13.33° C | 52% | 1011.4 hPa | - | - | - | - |
| 1777710069 | 13.89° C | 51% | 1011.4 hPa | - | - | - | - |
| 1777708930 | 13.89° C | 51% | 1011.6 hPa | - | - | - | - |
| 1777707893 | 14.44° C | 50% | 1011.6 hPa | - | - | - | - |
| 1777706750 | 13.89° C | 50% | 1011.7 hPa | - | - | - | - |
| 1777705632 | 13.89° C | 51% | 1011.7 hPa | - | - | - | - |
| 1777704499 | 13.89° C | 50% | 1011.7 hPa | - | - | - | - |
| 1777703472 | 13.89° C | 51% | 1011.7 hPa | - | - | - | - |
| 1777702495 | 12.78° C | 54% | - | - | - | - | - |
| 1777702490 | 12.78° C | 54% | 1011.7 hPa | - | - | - | - |
| 1777701393 | 11.11° C | 59% | 1011.8 hPa | - | - | - | - |
| 1777700370 | 10.56° C | 63% | 1011.9 hPa | - | - | - | - |
* Rain since midnight (hover to see other rain measurements)
** Current wind speed in m/s (hover to see current wind gust speed)